Time;durP1;ratioP1;P1;durP2;ratioP2;P2;SDS_P1;SDS_P2;PMS_P1;PMS_P2;Temp;Humidity;BMP_temperature;BMP_pressure;BME280_temperature;BME280_humidity;BME280_pressure;Samples;Min_cycle;Max_cycle;Signal;HPM_P1;HPM_P2
2024/01/08 00:01:39;;;;;;;2.55;1.50;;;-1.10;99.90;;;;;;5015635;28;20037;-71
2024/01/08 00:04:05;;;;;;;3.33;1.33;;;-1.10;99.90;;;;;;5015772;28;20039;-71
2024/01/08 00:06:31;;;;;;;2.03;0.88;;;-1.10;99.90;;;;;;5015800;28;20132;-71
2024/01/08 00:09:11;;;;;;;2.15;1.50;;;-1.10;99.90;;;;;;5032575;28;20076;-71
2024/01/08 00:11:37;;;;;;;2.47;1.25;;;-1.10;99.90;;;;;;5025729;28;20041;-71
2024/01/08 00:14:03;;;;;;;1.98;1.30;;;-1.10;99.90;;;;;;5020388;28;20180;-71
2024/01/08 00:16:29;;;;;;;6.60;1.42;;;-1.10;99.90;;;;;;5016562;28;20041;-71
2024/01/08 00:18:55;;;;;;;1.05;0.70;;;-1.10;99.90;;;;;;5034449;28;20116;-71
2024/01/08 00:21:21;;;;;;;6.85;1.65;;;-1.10;99.90;;;;;;5039991;28;20029;-71
2024/01/08 00:23:47;;;;;;;3.90;1.55;;;-1.10;99.90;;;;;;5007538;28;20037;-71
2024/01/08 00:26:13;;;;;;;3.63;1.73;;;-1.10;99.90;;;;;;5015251;28;20555;-71
2024/01/08 00:28:38;;;;;;;1.95;1.33;;;-1.10;99.90;;;;;;5023079;28;20048;-71
2024/01/08 00:31:04;;;;;;;2.03;1.15;;;-1.10;99.90;;;;;;5010633;28;20041;-71
2024/01/08 00:33:59;;;;;;;2.42;1.60;;;-1.10;99.90;;;;;;5015607;28;20150;-71
2024/01/08 00:36:38;;;;;;;4.03;1.95;;;-1.10;99.90;;;;;;5011683;28;20481;-71
2024/01/08 00:39:31;;;;;;;3.92;0.98;;;-1.10;99.90;;;;;;5021004;28;20056;-71
2024/01/08 00:41:57;;;;;;;4.10;1.48;;;-1.10;99.90;;;;;;5022259;28;20039;-71
2024/01/08 00:44:23;;;;;;;4.75;2.30;;;-1.10;99.90;;;;;;5013082;28;20052;-71
2024/01/08 00:46:49;;;;;;;1.45;1.17;;;-1.00;99.90;;;;;;5019136;28;20037;-72
2024/01/08 00:49:15;;;;;;;1.83;1.30;;;-1.00;99.90;;;;;;5015843;28;20038;-72
2024/01/08 00:51:44;;;;;;;2.65;1.38;;;-1.00;99.90;;;;;;5014319;28;20065;-71
2024/01/08 01:09:03;;;;;;;1.70;1.00;;;-1.00;99.90;;;;;;5037143;28;20139;-71
2024/01/08 01:11:29;;;;;;;2.60;1.20;;;-1.00;99.90;;;;;;5021124;28;20045;-71
2024/01/08 01:13:55;;;;;;;2.47;1.45;;;-1.10;99.90;;;;;;5014602;28;20044;-71
2024/01/08 01:16:26;;;;;;;2.65;1.50;;;-1.10;99.90;;;;;;5013244;28;20033;-71
2024/01/08 01:18:52;;;;;;;1.83;0.95;;;-1.20;99.90;;;;;;5012954;28;20484;-71
2024/01/08 01:21:22;;;;;;;3.83;1.20;;;-1.30;99.90;;;;;;5029628;28;20049;-71
2024/01/08 01:23:50;;;;;;;2.00;1.45;;;-1.40;99.90;;;;;;5015952;28;20077;-71
2024/01/08 01:26:23;;;;;;;2.88;1.83;;;-1.50;99.90;;;;;;5029888;28;20563;-71
2024/01/08 01:28:50;;;;;;;1.92;1.30;;;-1.60;99.90;;;;;;5011911;28;20052;-71
2024/01/08 01:31:16;;;;;;;2.13;1.30;;;-1.60;99.90;;;;;;4998485;28;20041;-71
2024/01/08 01:33:43;;;;;;;2.38;1.27;;;-1.60;99.90;;;;;;5027678;28;20188;-71
2024/01/08 01:36:20;;;;;;;5.28;1.75;;;-1.70;99.90;;;;;;5014056;28;20083;-71
2024/01/08 01:38:47;;;;;;;2.80;1.25;;;-1.80;99.90;;;;;;5012729;28;20069;-71
2024/01/08 01:41:15;;;;;;;3.28;1.30;;;-1.80;99.90;;;;;;5013784;28;20375;-71
2024/01/08 01:43:41;;;;;;;2.38;1.55;;;-1.80;99.90;;;;;;5017357;28;20540;-71
2024/01/08 01:46:24;;;;;;;1.38;1.27;;;-1.80;99.90;;;;;;5001919;28;20034;-71
2024/01/08 01:48:50;;;;;;;3.30;1.02;;;-1.90;99.90;;;;;;5021674;28;20045;-71
2024/01/08 01:51:18;;;;;;;2.10;1.73;;;-2.00;99.90;;;;;;5013290;28;20140;-71
2024/01/08 01:53:45;;;;;;;1.13;0.73;;;-2.00;99.90;;;;;;5013103;28;20053;-71
2024/01/08 01:56:13;;;;;;;1.48;0.95;;;-2.00;99.90;;;;;;5003151;28;20036;-71
2024/01/08 01:58:42;;;;;;;1.23;1.00;;;-2.10;99.90;;;;;;5020306;28;20064;-71
2024/01/08 02:01:09;;;;;;;4.55;1.10;;;-2.10;99.90;;;;;;4986371;28;20084;-71
2024/01/08 02:03:37;;;;;;;3.38;1.38;;;-2.20;99.90;;;;;;5013025;28;20045;-71
2024/01/08 02:06:15;;;;;;;2.30;1.55;;;-2.20;99.90;;;;;;5000635;28;20060;-71
2024/01/08 02:08:46;;;;;;;1.50;1.27;;;-2.20;99.90;;;;;;5013154;28;20053;-71
2024/01/08 02:11:12;;;;;;;1.33;1.15;;;-2.30;99.90;;;;;;5015131;28;20129;-71
2024/01/08 02:13:39;;;;;;;2.05;1.17;;;-2.30;99.90;;;;;;4999113;28;20050;-71
2024/01/08 02:16:06;;;;;;;2.83;1.30;;;-2.30;99.90;;;;;;5041888;28;20072;-72
2024/01/08 02:18:33;;;;;;;4.20;1.52;;;-2.30;99.90;;;;;;5012369;28;20375;-71
2024/01/08 02:21:00;;;;;;;7.07;1.58;;;-2.30;99.90;;;;;;5001488;28;20038;-71
2024/01/08 02:23:27;;;;;;;2.72;2.17;;;-2.30;99.90;;;;;;5013708;28;20073;-72
2024/01/08 02:25:53;;;;;;;1.75;1.13;;;-2.30;99.90;;;;;;5008124;28;20042;-71
2024/01/08 02:28:19;;;;;;;3.33;2.08;;;-2.20;99.90;;;;;;5012584;28;20107;-71
2024/01/08 02:30:49;;;;;;;2.25;1.30;;;-2.20;99.90;;;;;;5014971;28;20045;-71
2024/01/08 02:33:15;;;;;;;0.63;0.57;;;-2.10;99.90;;;;;;5018058;28;20049;-71
2024/01/08 02:35:42;;;;;;;3.60;1.83;;;-2.10;99.90;;;;;;5028932;28;20048;-71
2024/01/08 02:38:08;;;;;;;1.60;0.82;;;-2.00;99.90;;;;;;5021244;28;20347;-71
2024/01/08 02:40:34;;;;;;;2.47;1.58;;;-2.00;99.90;;;;;;5010760;28;20560;-71
2024/01/08 02:43:00;;;;;;;7.63;2.10;;;-2.00;99.90;;;;;;5016983;28;20038;-71
2024/01/08 02:45:26;;;;;;;2.78;1.63;;;-2.00;99.90;;;;;;5010872;28;20164;-71
2024/01/08 02:47:53;;;;;;;3.88;1.10;;;-1.90;99.90;;;;;;5003340;28;20151;-72
2024/01/08 02:50:18;;;;;;;4.47;1.77;;;-1.90;99.90;;;;;;5017333;28;20056;-72
2024/01/08 02:52:45;;;;;;;1.80;1.35;;;-1.90;99.90;;;;;;5002705;28;20049;-72
2024/01/08 02:55:11;;;;;;;1.45;1.17;;;-1.80;99.90;;;;;;5008047;28;20425;-71
2024/01/08 02:57:38;;;;;;;4.28;1.35;;;-1.80;99.90;;;;;;5006444;28;20037;-71
2024/01/08 03:00:05;;;;;;;2.78;1.33;;;-1.80;99.90;;;;;;5013064;28;20539;-72
2024/01/08 03:02:38;;;;;;;2.30;1.35;;;-1.70;99.90;;;;;;5019484;28;20041;-71
2024/01/08 03:05:05;;;;;;;3.33;1.38;;;-1.70;99.90;;;;;;5000532;28;20048;-72
2024/01/08 03:07:46;;;;;;;3.30;2.03;;;-1.60;99.90;;;;;;4989806;28;20062;-71
2024/01/08 03:10:13;;;;;;;2.67;1.90;;;-1.60;99.90;;;;;;5006194;28;20177;-72
2024/01/08 03:12:39;;;;;;;2.05;1.20;;;-1.60;99.90;;;;;;5013118;28;20398;-71
2024/01/08 03:15:06;;;;;;;7.35;1.95;;;-1.50;99.90;;;;;;5021003;28;20048;-72
2024/01/08 03:17:32;;;;;;;3.00;1.92;;;-1.50;99.90;;;;;;5016238;28;20583;-71
2024/01/08 03:19:58;;;;;;;2.75;1.88;;;-1.50;99.90;;;;;;5016137;28;20128;-71
2024/01/08 03:22:24;;;;;;;2.78;1.75;;;-1.40;99.90;;;;;;5019831;28;20091;-72
2024/01/08 03:24:50;;;;;;;4.07;2.67;;;-1.40;99.90;;;;;;4990961;28;20040;-71
2024/01/08 03:27:16;;;;;;;2.63;1.20;;;-1.40;99.90;;;;;;5022658;28;20045;-72
2024/01/08 03:29:42;;;;;;;3.15;1.58;;;-1.40;99.90;;;;;;5014341;28;20044;-71
2024/01/08 03:32:09;;;;;;;3.00;1.83;;;-1.40;99.90;;;;;;5022639;28;20131;-71
2024/01/08 03:34:35;;;;;;;7.13;2.65;;;-1.30;99.90;;;;;;5021436;28;20466;-71
2024/01/08 03:37:03;;;;;;;3.15;1.67;;;-1.30;99.90;;;;;;5021084;28;20068;-72
2024/01/08 03:39:30;;;;;;;5.32;1.85;;;-1.30;99.90;;;;;;5012948;28;20045;-72
2024/01/08 03:41:57;;;;;;;4.40;1.80;;;-1.30;99.90;;;;;;5023650;28;20382;-71
2024/01/08 03:44:23;;;;;;;2.15;1.30;;;-1.30;99.90;;;;;;5022091;28;20129;-72
2024/01/08 03:46:49;;;;;;;3.10;2.10;;;-1.30;99.90;;;;;;5000060;28;20041;-71
2024/01/08 03:49:15;;;;;;;5.15;2.17;;;-1.30;99.90;;;;;;5013460;28;20051;-72
2024/01/08 03:51:41;;;;;;;3.78;1.70;;;-1.20;99.90;;;;;;5024870;28;20117;-72
2024/01/08 03:54:07;;;;;;;5.40;1.77;;;-1.20;99.90;;;;;;5007866;28;20042;-72
2024/01/08 03:56:33;;;;;;;4.05;1.25;;;-1.20;99.90;;;;;;5012130;28;20477;-72
2024/01/08 03:58:59;;;;;;;2.72;1.70;;;-1.20;99.90;;;;;;5016103;28;20033;-72
2024/01/08 04:01:24;;;;;;;3.58;2.17;;;-1.20;99.90;;;;;;5019702;28;20365;-72
2024/01/08 04:03:51;;;;;;;3.35;1.92;;;-1.20;99.90;;;;;;5009311;28;20438;-72
2024/01/08 04:06:23;;;;;;;6.35;2.88;;;-1.20;99.90;;;;;;5023356;28;20053;-72
2024/01/08 04:08:49;;;;;;;2.78;1.92;;;-1.20;99.90;;;;;;5024010;28;20044;-72
2024/01/08 04:11:15;;;;;;;4.28;1.58;;;-1.20;99.90;;;;;;5023072;28;20109;-72
2024/01/08 04:13:41;;;;;;;9.02;2.13;;;-1.20;99.90;;;;;;5033412;28;20083;-72
2024/01/08 04:16:06;;;;;;;10.70;2.42;;;-1.20;99.90;;;;;;5041488;28;20045;-72
2024/01/08 04:18:32;;;;;;;7.18;2.00;;;-1.10;99.90;;;;;;5036732;28;20037;-72
2024/01/08 04:20:58;;;;;;;4.47;1.90;;;-1.20;99.90;;;;;;5016001;28;20038;-72
2024/01/08 04:23:24;;;;;;;8.07;2.30;;;-1.10;99.90;;;;;;5033442;28;20263;-72
2024/01/08 04:25:49;;;;;;;3.05;1.67;;;-1.20;99.90;;;;;;5046452;28;20037;-72
2024/01/08 04:28:15;;;;;;;4.22;2.03;;;-1.20;99.90;;;;;;5036097;28;20124;-71
2024/01/08 04:30:41;;;;;;;4.78;2.20;;;-1.20;99.90;;;;;;5033453;28;20048;-71
2024/01/08 04:33:07;;;;;;;3.05;1.63;;;-1.20;99.90;;;;;;5039253;28;20469;-71
2024/01/08 04:35:33;;;;;;;5.82;2.35;;;-1.20;99.90;;;;;;5019412;28;20037;-72
2024/01/08 04:37:58;;;;;;;6.28;2.42;;;-1.20;99.90;;;;;;5035492;28;20047;-72
2024/01/08 04:40:24;;;;;;;3.60;1.33;;;-1.20;99.90;;;;;;5017261;28;20052;-72
2024/01/08 04:42:50;;;;;;;5.53;2.38;;;-1.20;99.90;;;;;;5037243;28;20068;-72
2024/01/08 04:45:15;;;;;;;5.93;1.80;;;-1.20;99.90;;;;;;5023446;28;20049;-72
2024/01/08 04:47:41;;;;;;;4.68;2.55;;;-1.20;99.90;;;;;;5040190;28;20040;-72
2024/01/08 04:50:07;;;;;;;2.53;1.73;;;-1.10;99.90;;;;;;5035885;28;20039;-72
2024/01/08 04:52:33;;;;;;;3.53;1.98;;;-1.10;99.90;;;;;;5046203;28;20554;-72
2024/01/08 04:54:59;;;;;;;5.32;2.50;;;-1.10;99.90;;;;;;5032627;28;20036;-72
2024/01/08 04:57:25;;;;;;;2.97;1.83;;;-1.10;99.90;;;;;;5020976;28;20492;-72
2024/01/08 04:59:50;;;;;;;2.08;1.20;;;-1.00;99.90;;;;;;5040437;28;20076;-72
2024/01/08 05:02:16;;;;;;;4.38;2.03;;;-1.00;99.90;;;;;;5034913;28;20033;-71
2024/01/08 05:04:42;;;;;;;3.67;2.03;;;-1.00;99.90;;;;;;5034159;28;20065;-72
2024/01/08 05:07:08;;;;;;;5.15;2.10;;;-1.00;99.90;;;;;;5009188;28;20048;-71
2024/01/08 05:09:40;;;;;;;4.68;1.77;;;-0.90;99.90;;;;;;4998447;28;20053;-72
2024/01/08 05:12:06;;;;;;;5.90;2.25;;;-0.90;99.90;;;;;;5007009;28;20038;-72
2024/01/08 05:14:32;;;;;;;10.88;1.75;;;-0.90;99.90;;;;;;4995338;28;20037;-72
2024/01/08 05:16:58;;;;;;;2.72;1.95;;;-1.00;99.90;;;;;;5003415;28;20124;-72
2024/01/08 05:19:24;;;;;;;4.53;1.88;;;-1.00;99.90;;;;;;4985696;28;20056;-71
2024/01/08 05:21:53;;;;;;;7.32;2.30;;;-1.10;99.90;;;;;;4993066;28;20069;-72
2024/01/08 05:24:18;;;;;;;7.35;1.60;;;-1.10;99.90;;;;;;4987007;28;20045;-72
2024/01/08 05:26:44;;;;;;;5.35;1.95;;;-1.10;99.90;;;;;;4982691;28;20041;-72
2024/01/08 05:29:10;;;;;;;2.13;1.42;;;-1.20;99.90;;;;;;4982825;28;20128;-72
2024/01/08 05:31:36;;;;;;;4.88;1.90;;;-1.30;99.90;;;;;;5000484;28;20067;-72
2024/01/08 05:34:01;;;;;;;5.78;2.40;;;-1.30;99.90;;;;;;4998141;28;20043;-72
2024/01/08 05:36:27;;;;;;;3.75;1.92;;;-1.40;99.90;;;;;;5007445;28;20644;-72
2024/01/08 05:38:53;;;;;;;2.22;1.50;;;-1.40;99.90;;;;;;4996947;28;20410;-72
2024/01/08 05:41:34;;;;;;;2.58;1.35;;;-1.50;99.90;;;;;;4997665;28;20056;-71
2024/01/08 05:44:06;;;;;;;2.35;1.33;;;-1.50;99.90;;;;;;4994778;28;20526;-72
2024/01/08 05:46:42;;;;;;;3.20;1.45;;;-1.60;99.90;;;;;;4994609;28;20048;-72
2024/01/08 05:49:08;;;;;;;1.40;0.68;;;-1.60;99.90;;;;;;4991012;28;20042;-71
2024/01/08 05:51:34;;;;;;;2.95;1.52;;;-1.70;99.90;;;;;;5005251;28;20147;-72
2024/01/08 05:54:00;;;;;;;1.83;1.60;;;-1.70;99.90;;;;;;4996770;28;20068;-72
2024/01/08 05:56:26;;;;;;;3.10;1.40;;;-1.80;99.90;;;;;;4999262;28;20065;-72
2024/01/08 05:58:51;;;;;;;3.05;1.95;;;-1.80;99.90;;;;;;4993649;28;20084;-72
2024/01/08 06:01:17;;;;;;;2.95;0.98;;;-1.90;99.90;;;;;;4991151;28;20030;-72
2024/01/08 06:03:46;;;;;;;3.08;1.73;;;-1.90;99.90;;;;;;4997184;28;20117;-72
2024/01/08 06:06:19;;;;;;;3.45;1.17;;;-2.00;99.90;;;;;;5012564;28;20049;-72
2024/01/08 06:08:51;;;;;;;4.03;1.52;;;-2.00;99.90;;;;;;5007215;28;20038;-72
2024/01/08 06:11:17;;;;;;;3.35;1.67;;;-2.10;99.90;;;;;;5016365;28;20037;-72
2024/01/08 06:13:43;;;;;;;2.25;1.48;;;-2.10;99.90;;;;;;5016927;28;20430;-72
2024/01/08 06:16:15;;;;;;;3.78;2.22;;;-2.20;99.90;;;;;;5016962;28;20041;-72
2024/01/08 06:18:41;;;;;;;2.22;1.15;;;-2.20;99.90;;;;;;5025194;28;20037;-72
2024/01/08 06:21:07;;;;;;;0.90;0.73;;;-2.30;99.90;;;;;;5009809;28;20594;-71
2024/01/08 06:23:33;;;;;;;2.17;1.33;;;-2.30;99.90;;;;;;5013715;28;20534;-71
2024/01/08 06:26:01;;;;;;;2.70;1.40;;;-2.30;99.90;;;;;;5013381;28;20067;-71
2024/01/08 06:28:27;;;;;;;1.33;1.23;;;-2.30;99.90;;;;;;5029387;28;20049;-72
2024/01/08 06:30:53;;;;;;;2.92;1.65;;;-2.30;99.90;;;;;;5001152;28;20096;-72
2024/01/08 06:33:19;;;;;;;1.77;1.05;;;-2.30;99.90;;;;;;5017704;28;20047;-72
2024/01/08 06:35:44;;;;;;;2.67;1.58;;;-2.40;99.90;;;;;;5013475;28;20056;-72
2024/01/08 06:38:10;;;;;;;1.92;1.67;;;-2.40;99.90;;;;;;5010488;28;20033;-73
2024/01/08 06:40:36;;;;;;;2.33;1.30;;;-2.30;99.90;;;;;;5029217;28;20408;-72
2024/01/08 06:43:02;;;;;;;1.63;0.77;;;-2.30;99.90;;;;;;5014041;28;20060;-73
2024/01/08 06:45:28;;;;;;;2.20;0.93;;;-2.30;99.90;;;;;;5016820;28;20036;-73
2024/01/08 06:47:54;;;;;;;1.58;1.48;;;-2.20;99.90;;;;;;5000691;28;20551;-73
2024/01/08 06:50:20;;;;;;;1.27;1.17;;;-2.20;99.90;;;;;;5017850;28;20076;-72
2024/01/08 06:52:47;;;;;;;1.98;1.33;;;-2.10;99.90;;;;;;5013499;28;20474;-72
2024/01/08 06:55:13;;;;;;;4.22;1.02;;;-2.10;99.90;;;;;;5011833;28;20037;-73
2024/01/08 06:57:38;;;;;;;2.40;1.50;;;-2.00;99.90;;;;;;5000851;28;20045;-73
2024/01/08 07:00:05;;;;;;;2.30;1.23;;;-1.90;99.90;;;;;;5013485;28;20060;-73
2024/01/08 07:02:31;;;;;;;3.28;1.60;;;-1.90;99.90;;;;;;5013475;28;20482;-72
2024/01/08 07:04:56;;;;;;;3.83;1.40;;;-1.90;99.90;;;;;;5014080;28;20032;-72
2024/01/08 07:07:22;;;;;;;2.25;1.10;;;-1.80;99.90;;;;;;5009400;28;20515;-72
2024/01/08 07:09:54;;;;;;;3.97;1.70;;;-1.80;99.90;;;;;;5018831;28;20045;-72
2024/01/08 07:12:20;;;;;;;2.15;1.00;;;-1.70;99.90;;;;;;5001786;28;20041;-71
2024/01/08 07:14:49;;;;;;;2.63;1.35;;;-1.70;99.90;;;;;;5000691;28;20554;-71
2024/01/08 07:17:15;;;;;;;1.00;0.93;;;-1.60;99.90;;;;;;5016893;28;20079;-72
2024/01/08 07:19:41;;;;;;;4.47;1.90;;;-1.60;99.90;;;;;;5004613;28;20412;-71
2024/01/08 07:22:07;;;;;;;3.92;0.90;;;-1.60;99.90;;;;;;5019733;28;20132;-71
2024/01/08 07:24:32;;;;;;;1.45;0.95;;;-1.60;99.90;;;;;;5020343;28;20038;-71
2024/01/08 07:26:58;;;;;;;3.03;2.03;;;-1.60;99.90;;;;;;5015434;28;20045;-70
2024/01/08 07:29:24;;;;;;;3.25;1.75;;;-1.50;99.90;;;;;;5018306;28;20049;-72
2024/01/08 07:31:50;;;;;;;2.80;1.60;;;-1.50;99.90;;;;;;5012740;28;20537;-72
2024/01/08 07:34:16;;;;;;;1.30;1.20;;;-1.50;99.90;;;;;;5004050;28;20057;-72
2024/01/08 07:36:42;;;;;;;1.38;1.00;;;-1.40;99.90;;;;;;5024271;28;20060;-72
2024/01/08 07:39:08;;;;;;;1.98;1.10;;;-1.40;99.90;;;;;;5011962;28;20044;-72
2024/01/08 07:41:33;;;;;;;3.10;2.22;;;-1.40;99.90;;;;;;5009220;28;20045;-71
2024/01/08 07:43:59;;;;;;;1.63;1.52;;;-1.40;99.90;;;;;;5016170;28;20037;-71
2024/01/08 07:46:25;;;;;;;1.55;1.27;;;-1.40;99.90;;;;;;5016315;28;20041;-71
2024/01/08 07:48:51;;;;;;;1.20;1.00;;;-1.40;99.90;;;;;;5005199;28;20049;-71
2024/01/08 07:51:22;;;;;;;3.45;1.50;;;-1.30;99.90;;;;;;5012052;28;20050;-73
2024/01/08 07:53:49;;;;;;;2.38;1.67;;;-1.30;99.90;;;;;;5035233;28;20037;-73
2024/01/08 07:56:15;;;;;;;2.20;1.63;;;-1.30;99.90;;;;;;5015906;28;20493;-74
2024/01/08 07:58:40;;;;;;;1.60;1.27;;;-1.30;99.90;;;;;;5032685;28;20048;-73
2024/01/08 08:01:07;;;;;;;1.45;1.00;;;-1.20;99.90;;;;;;5018756;28;20053;-73
2024/01/08 08:03:33;;;;;;;1.98;1.30;;;-1.20;99.90;;;;;;5033278;28;20052;-74
2024/01/08 08:06:06;;;;;;;1.15;0.73;;;-1.20;99.90;;;;;;5016714;28;20060;-74
2024/01/08 08:08:38;;;;;;;2.67;1.38;;;-1.20;99.90;;;;;;5016071;28;20426;-74
2024/01/08 08:11:06;;;;;;;3.13;1.63;;;-1.10;99.90;;;;;;5015368;28;20079;-73
2024/01/08 08:13:31;;;;;;;2.75;1.75;;;-1.10;99.90;;;;;;5015985;28;20489;-73
2024/01/08 08:15:59;;;;;;;3.40;1.42;;;-1.10;99.90;;;;;;5015423;28;20108;-73
2024/01/08 08:18:24;;;;;;;3.78;1.17;;;-1.10;99.90;;;;;;5015628;28;20049;-74
2024/01/08 08:20:50;;;;;;;2.47;0.98;;;-1.10;99.90;;;;;;5036723;28;20040;-74
2024/01/08 08:23:16;;;;;;;2.08;1.02;;;-1.10;99.90;;;;;;5015991;28;20034;-75
2024/01/08 08:25:41;;;;;;;4.13;0.90;;;-1.00;99.90;;;;;;5018841;28;20029;-73
2024/01/08 08:28:07;;;;;;;4.15;1.90;;;-1.00;99.90;;;;;;5018638;28;20076;-74
2024/01/08 08:30:33;;;;;;;1.17;0.73;;;-1.00;99.90;;;;;;5030720;28;20045;-74
2024/01/08 08:32:59;;;;;;;1.63;1.13;;;-0.90;99.90;;;;;;5008926;28;20072;-74
2024/01/08 08:35:25;;;;;;;2.28;1.48;;;-0.90;99.90;;;;;;5015644;28;20144;-73
2024/01/08 08:37:51;;;;;;;1.45;1.13;;;-0.90;99.90;;;;;;5005741;28;20037;-73
2024/01/08 08:40:17;;;;;;;1.55;1.17;;;-0.90;99.90;;;;;;5017871;28;20485;-74
2024/01/08 08:42:43;;;;;;;1.85;0.95;;;-0.90;99.90;;;;;;5014998;28;20106;-73
2024/01/08 08:45:09;;;;;;;2.63;1.40;;;-0.80;99.90;;;;;;5006389;28;20571;-74
2024/01/08 08:47:35;;;;;;;2.05;1.08;;;-0.80;99.90;;;;;;5019144;28;20124;-73
2024/01/08 08:50:01;;;;;;;6.15;1.48;;;-0.80;99.90;;;;;;5012236;28;20038;-73
2024/01/08 08:52:26;;;;;;;2.35;1.75;;;-0.70;99.90;;;;;;5009440;28;20063;-73
2024/01/08 08:54:52;;;;;;;2.97;1.65;;;-0.70;99.90;;;;;;5014900;28;20485;-72
2024/01/08 08:57:19;;;;;;;3.03;1.38;;;-0.70;99.90;;;;;;5006367;28;20041;-74
2024/01/08 08:59:45;;;;;;;1.45;0.93;;;-0.70;99.90;;;;;;5015001;28;20045;-73
2024/01/08 09:02:10;;;;;;;2.92;1.70;;;-0.60;99.90;;;;;;5003033;28;20057;-71
2024/01/08 09:04:36;;;;;;;1.10;0.88;;;-0.60;99.90;;;;;;5006587;28;20041;-73
2024/01/08 09:07:02;;;;;;;3.72;1.40;;;-0.50;99.90;;;;;;5023957;28;20469;-73
2024/01/08 09:09:35;;;;;;;3.15;1.55;;;-0.50;99.90;;;;;;5014584;28;20060;-74
2024/01/08 09:12:01;;;;;;;1.15;0.77;;;-0.50;99.90;;;;;;5014479;28;20124;-74
2024/01/08 09:14:27;;;;;;;1.10;0.55;;;-0.40;99.90;;;;;;5006576;28;20121;-73
2024/01/08 09:16:53;;;;;;;2.20;1.35;;;-0.40;99.90;;;;;;5006449;28;20571;-73
2024/01/08 09:19:19;;;;;;;6.07;1.67;;;-0.30;99.90;;;;;;5014120;28;20073;-74
2024/01/08 09:21:47;;;;;;;2.05;0.90;;;-0.20;99.90;;;;;;5014385;28;20034;-73
2024/01/08 09:24:13;;;;;;;3.30;1.48;;;-0.20;99.90;;;;;;5014260;28;20041;-74
2024/01/08 09:26:41;;;;;;;2.72;1.27;;;-0.10;99.90;;;;;;5014703;28;20397;-74
2024/01/08 09:29:08;;;;;;;1.30;0.85;;;-0.10;99.90;;;;;;5008084;28;20041;-73
2024/01/08 09:31:34;;;;;;;1.92;1.38;;;0.10;99.90;;;;;;5005811;28;20045;-74
2024/01/08 09:34:00;;;;;;;1.60;0.82;;;0.10;99.90;;;;;;5014359;28;20059;-73
2024/01/08 09:36:26;;;;;;;2.17;1.00;;;0.00;99.90;;;;;;5015278;28;20382;-73
2024/01/08 09:38:51;;;;;;;4.38;1.73;;;0.00;99.90;;;;;;5010830;28;20042;-72
2024/01/08 09:41:17;;;;;;;1.58;1.20;;;0.00;99.90;;;;;;5002290;28;20064;-72
2024/01/08 09:43:46;;;;;;;1.73;1.10;;;-0.10;99.90;;;;;;5004098;28;20051;-73
2024/01/08 09:46:18;;;;;;;2.25;1.55;;;-0.10;99.90;;;;;;5005872;28;20044;-73
2024/01/08 09:48:53;;;;;;;2.72;1.67;;;-0.10;99.90;;;;;;5018746;28;20374;-74
2024/01/08 09:51:20;;;;;;;3.03;1.55;;;-0.10;99.90;;;;;;4989025;28;20482;-73
2024/01/08 09:53:46;;;;;;;2.90;1.33;;;-0.10;99.90;;;;;;5001962;28;23419;-73
2024/01/08 09:56:15;;;;;;;5.80;1.45;;;-0.10;99.90;;;;;;5002540;28;20049;-72
2024/01/08 09:58:43;;;;;;;2.97;1.52;;;-0.10;99.90;;;;;;5002572;28;20042;-73
2024/01/08 10:01:09;;;;;;;3.25;1.60;;;-0.10;99.90;;;;;;5005596;28;20088;-73
2024/01/08 10:03:35;;;;;;;2.38;1.25;;;-0.10;99.90;;;;;;4989193;28;20042;-74
2024/01/08 10:06:14;;;;;;;1.77;1.10;;;-0.10;99.90;;;;;;5003878;28;20040;-73
2024/01/08 10:08:40;;;;;;;3.17;1.20;;;-0.20;99.90;;;;;;5012076;28;20033;-73
2024/01/08 10:11:07;;;;;;;3.90;2.40;;;-0.10;99.90;;;;;;5025206;28;20055;-72
2024/01/08 10:13:33;;;;;;;1.05;0.93;;;-0.20;99.90;;;;;;5009852;28;20045;-71
2024/01/08 10:16:00;;;;;;;1.25;0.90;;;-0.20;99.90;;;;;;5018186;28;20103;-71
2024/01/08 10:18:28;;;;;;;1.52;1.33;;;-0.20;99.90;;;;;;5025858;28;20102;-72
2024/01/08 10:21:11;;;;;;;2.47;1.33;;;-0.20;99.90;;;;;;5007974;28;20038;-72
2024/01/08 10:23:38;;;;;;;1.08;0.90;;;-0.20;99.90;;;;;;5037214;28;20504;-73
2024/01/08 10:26:04;;;;;;;3.22;1.52;;;-0.20;99.90;;;;;;5022048;28;20090;-73
2024/01/08 10:28:37;;;;;;;2.67;1.20;;;-0.10;99.90;;;;;;5025123;28;20075;-71
2024/01/08 10:31:10;;;;;;;2.47;0.90;;;-0.10;99.90;;;;;;5023729;28;20045;-72
2024/01/08 10:33:39;;;;;;;0.80;0.68;;;0.00;99.90;;;;;;5022793;28;20547;-74
2024/01/08 10:36:07;;;;;;;1.00;0.90;;;0.10;99.90;;;;;;5038238;28;20590;-73
2024/01/08 10:38:33;;;;;;;1.10;0.80;;;0.10;99.90;;;;;;5019276;28;20500;-74
2024/01/08 10:41:01;;;;;;;2.95;1.98;;;0.20;99.90;;;;;;5027296;28;20117;-73
2024/01/08 10:43:30;;;;;;;1.42;0.90;;;0.40;99.90;;;;;;5011226;28;20471;-72
2024/01/08 10:46:04;;;;;;;3.05;1.52;;;0.50;99.90;;;;;;5013050;28;20041;-73
2024/01/08 10:48:43;;;;;;;0.82;0.73;;;0.50;99.90;;;;;;5010290;28;20041;-72
2024/01/08 10:51:09;;;;;;;1.30;0.70;;;0.60;99.90;;;;;;5031207;28;20044;-71
2024/01/08 10:53:45;;;;;;;1.08;1.00;;;0.60;99.90;;;;;;5046129;28;20041;-73
2024/01/08 10:56:15;;;;;;;1.60;0.90;;;0.60;99.90;;;;;;5033165;28;20057;-72
2024/01/08 10:58:50;;;;;;;1.48;0.95;;;0.60;99.90;;;;;;5031627;28;20045;-73
2024/01/08 11:01:17;;;;;;;2.95;1.20;;;0.60;99.90;;;;;;5027232;28;20038;-73
2024/01/08 11:03:44;;;;;;;1.60;0.95;;;0.60;99.90;;;;;;5033873;28;20044;-72
2024/01/08 11:06:11;;;;;;;2.53;1.25;;;0.60;99.90;;;;;;5031347;28;20947;-73
2024/01/08 11:08:50;;;;;;;1.83;0.95;;;0.60;99.90;;;;;;5009718;28;20056;-73
2024/01/08 11:11:18;;;;;;;1.73;1.10;;;0.50;99.90;;;;;;5000519;28;20084;-71
2024/01/08 11:13:44;;;;;;;4.32;1.45;;;0.60;99.90;;;;;;4997581;28;20137;-71
2024/01/08 11:16:14;;;;;;;0.95;0.60;;;0.50;99.90;;;;;;5013030;28;20042;-71
2024/01/08 11:18:40;;;;;;;2.60;1.45;;;0.60;99.90;;;;;;5015106;28;20166;-72
2024/01/08 11:21:06;;;;;;;1.10;0.60;;;0.60;99.90;;;;;;5012672;28;20054;-73
2024/01/08 11:23:35;;;;;;;1.85;1.10;;;0.60;99.90;;;;;;5011558;28;20080;-72
2024/01/08 11:26:02;;;;;;;0.68;0.45;;;0.50;99.90;;;;;;5029933;28;20088;-70
2024/01/08 11:28:32;;;;;;;4.00;1.10;;;0.50;99.90;;;;;;4997855;28;20045;-72
2024/01/08 11:31:24;;;;;;;1.73;1.17;;;0.50;99.90;;;;;;5014700;28;20099;-71
2024/01/08 11:34:32;;;;;;;3.92;1.65;;;0.50;99.90;;;;;;5030908;28;20049;-71
2024/01/08 11:37:29;;;;;;;1.67;1.02;;;0.50;99.90;;;;;;4981005;28;20394;-71
2024/01/08 11:39:55;;;;;;;0.45;0.45;;;0.50;99.90;;;;;;4991112;28;20489;-70
2024/01/08 11:42:22;;;;;;;0.98;0.73;;;0.70;99.90;;;;;;5016248;28;20048;-72
2024/01/08 11:44:49;;;;;;;3.33;2.03;;;0.70;99.90;;;;;;4991675;28;20056;-72
2024/01/08 11:47:15;;;;;;;2.95;1.88;;;0.80;99.90;;;;;;5031047;28;20113;-72
2024/01/08 11:49:41;;;;;;;3.45;1.20;;;0.80;99.90;;;;;;4991974;28;20087;-69
2024/01/08 11:52:09;;;;;;;1.05;0.80;;;0.80;99.90;;;;;;5008381;28;23486;-71
2024/01/08 11:58:22;;;;;;;1.83;1.63;;;0.70;99.90;;;;;;5026927;28;20100;-72
2024/01/08 12:00:48;;;;;;;1.30;1.08;;;0.70;99.90;;;;;;5013059;28;20041;-70
2024/01/08 12:03:14;;;;;;;0.73;0.70;;;0.80;99.90;;;;;;5010482;28;20095;-69
2024/01/08 12:05:40;;;;;;;2.88;1.33;;;1.00;99.90;;;;;;5009136;28;20041;-71
2024/01/08 12:08:17;;;;;;;1.75;1.10;;;1.40;99.90;;;;;;5010101;28;20056;-71
2024/01/08 12:10:43;;;;;;;1.60;1.00;;;1.60;99.90;;;;;;5030589;28;20036;-71
2024/01/08 12:13:08;;;;;;;1.40;0.68;;;1.40;99.90;;;;;;4988549;28;20041;-70
2024/01/08 12:15:34;;;;;;;1.63;0.70;;;1.60;99.90;;;;;;5019720;28;20049;-71
2024/01/08 12:18:00;;;;;;;1.25;0.75;;;1.60;99.90;;;;;;5006534;28;20045;-70
2024/01/08 12:20:27;;;;;;;4.18;1.40;;;1.50;99.90;;;;;;5021989;28;20032;-70
2024/01/08 12:22:54;;;;;;;2.15;0.98;;;1.30;99.90;;;;;;4987939;28;20053;-71
2024/01/08 12:25:20;;;;;;;3.30;1.10;;;1.10;99.90;;;;;;5002884;28;20045;-69
2024/01/08 12:27:47;;;;;;;3.90;1.45;;;1.00;99.90;;;;;;5003941;28;20042;-68
2024/01/08 12:30:13;;;;;;;3.22;1.77;;;0.90;99.90;;;;;;5002828;28;20073;-69
2024/01/08 12:32:40;;;;;;;1.25;1.15;;;0.80;99.90;;;;;;4987235;28;20473;-70
2024/01/08 12:35:09;;;;;;;2.83;0.90;;;0.80;99.90;;;;;;5020100;28;20077;-69
2024/01/08 12:37:37;;;;;;;1.03;0.93;;;0.80;99.90;;;;;;5001222;28;20042;-72
2024/01/08 12:40:08;;;;;;;1.65;1.25;;;0.80;99.90;;;;;;5002426;28;20297;-69
2024/01/08 12:42:35;;;;;;;2.40;1.05;;;0.90;99.90;;;;;;5004086;28;20351;-70
2024/01/08 12:45:04;;;;;;;0.50;0.50;;;1.00;99.90;;;;;;5003633;28;20042;-70
2024/01/08 12:47:52;;;;;;;2.35;1.45;;;1.10;99.90;;;;;;5003047;28;20362;-70
2024/01/08 12:50:18;;;;;;;4.47;1.45;;;1.00;99.90;;;;;;4989210;28;20507;-70
2024/01/08 12:52:47;;;;;;;0.60;0.60;;;1.00;99.90;;;;;;5003882;28;20525;-70
2024/01/08 12:55:13;;;;;;;1.30;0.93;;;0.90;99.90;;;;;;4986213;28;20549;-70
2024/01/08 12:57:39;;;;;;;1.70;0.98;;;0.80;99.90;;;;;;5021933;28;20095;-70
2024/01/08 13:00:06;;;;;;;2.70;1.17;;;0.80;99.90;;;;;;5003362;28;20645;-70
2024/01/08 13:02:33;;;;;;;0.73;0.73;;;0.70;99.90;;;;;;5019445;28;20057;-70
2024/01/08 13:05:00;;;;;;;2.13;1.00;;;0.60;99.90;;;;;;5000910;28;20077;-69
2024/01/08 13:07:28;;;;;;;2.33;1.27;;;0.60;99.90;;;;;;4986343;28;20061;-71
2024/01/08 13:10:09;;;;;;;3.00;1.38;;;0.60;99.90;;;;;;5000451;28;20080;-70